Blue Star Naxos — SZUI — position and weather

sailwx.info

Track history (hours):
 
Tides and Currents Weather Stations Pressure Air Temp Water Temp Dewpoint Dewpoint Depression Visibility Wind Speed Wind Dir Waves Ship Positions

Blue Star Naxos

Last reported at 2016-May-02 00:31 UTC. Time now 2016-May-02 01:22 UTC.
Position N 37°58' E 023°33'.

Length 124 m; draft 5 m.

Type: Passenger vessel. MMSI: 239923000.

Date/timePositionNaut miles runAvg speedWind from/ knotsBaromVisibWave heightAir tempDewpointWater temp
2016-May-02 00:31N 37°58' E 023°33'0 0.0
2016-May-01 23:31N 37°58' E 023°33'0 0.0
2016-May-01 22:31N 37°58' E 023°33'0 0.0
2016-May-01 21:31N 37°58' E 023°33'0 0.0
2016-May-01 20:33N 37°58' E 023°33'6 6.0
2016-May-01 19:31N 37°60' E 023°26'2 2.0
2016-May-01 18:31N 37°59' E 023°28'0 0.0
2016-May-01 17:31N 37°59' E 023°28'0 0.0
2016-May-01 16:28N 37°59' E 023°28'1 1.3
2016-May-01 15:33N 37°59' E 023°30'0 0.0
2016-May-01 14:33N 37°59' E 023°30'1 0.6
2016-May-01 13:33N 37°58' E 023°30'2 1.8
2016-May-01 12:32N 37°60' E 023°29'0 0.4
2016-May-01 11:29N 38°00' E 023°29'4 4.5
2016-May-01 10:31N 37°58' E 023°34'0 0.0
2016-May-01 09:34N 37°58' E 023°34'0 0.0
2016-May-01 08:34N 37°58' E 023°34'0 0.0
2016-May-01 07:32N 37°58' E 023°34'0 0.0
2016-May-01 06:32N 37°58' E 023°34'0 0.0
2016-May-01 05:34N 37°58' E 023°34'0 0.0
2016-May-01 04:33N 37°58' E 023°34'0 0.0
2016-May-01 03:33N 37°58' E 023°34'0 0.0
2016-May-01 02:33N 37°58' E 023°34'0 0.0
2016-May-01 01:33N 37°58' E 023°34'0 0.0
2016-May-01 00:33N 37°58' E 023°34'0 0.0
2016-Apr-30 23:33N 37°58' E 023°34'0 0.0
2016-Apr-30 22:33N 37°58' E 023°34'0 0.0
2016-Apr-30 21:33N 37°58' E 023°34'0 0.0
2016-Apr-30 20:32N 37°58' E 023°34'0 0.0
2016-Apr-30 19:32N 37°58' E 023°34'0 0.0
2016-Apr-30 18:31N 37°58' E 023°34'0 0.0
2016-Apr-30 17:31N 37°58' E 023°34'0 0.0
2016-Apr-30 16:33N 37°58' E 023°34'0 0.0
2016-Apr-30 15:33N 37°58' E 023°34'0 0.0
2016-Apr-30 14:31N 37°58' E 023°34'0 0.0
2016-Apr-30 13:31N 37°58' E 023°34'0 0.0
2016-Apr-30 12:28N 37°58' E 023°34'0 0.0
2016-Apr-30 11:33N 37°58' E 023°34'0 0.0
2016-Apr-30 10:31N 37°58' E 023°34'0 0.0
2016-Apr-30 09:28N 37°58' E 023°34'0 0.0
2016-Apr-30 08:31N 37°58' E 023°34'0 0.0
2016-Apr-30 07:32N 37°58' E 023°34'0 0.0
2016-Apr-30 06:32N 37°58' E 023°34'0 0.0
2016-Apr-30 05:33N 37°58' E 023°34'0 0.0
2016-Apr-30 04:33N 37°58' E 023°34'0 0.0
2016-Apr-30 03:33N 37°58' E 023°34'0 0.0
2016-Apr-30 02:32N 37°58' E 023°34'0 0.0
2016-Apr-30 01:32N 37°58' E 023°34'0 0.0
2016-Apr-30 00:33N 37°58' E 023°34'0 0.0
2016-Apr-29 23:31N 37°58' E 023°34'0 0.0
2016-Apr-29 22:31N 37°58' E 023°34'0 0.0
2016-Apr-29 21:31N 37°58' E 023°34'0 0.0
2016-Apr-29 20:31N 37°58' E 023°34'0 0.0
2016-Apr-29 19:31N 37°58' E 023°34'0 0.0
2016-Apr-29 18:31N 37°58' E 023°34'0 0.0
2016-Apr-29 17:33N 37°58' E 023°34'0 0.0
2016-Apr-29 16:33N 37°58' E 023°34'0 0.0
2016-Apr-29 15:32N 37°58' E 023°34'0 0.0
2016-Apr-29 14:32N 37°58' E 023°34'0 0.0
2016-Apr-29 13:32N 37°58' E 023°34'0 0.0
2016-Apr-29 12:31N 37°58' E 023°34'0 0.0
2016-Apr-29 11:33N 37°58' E 023°34'0 0.0
2016-Apr-29 10:33N 37°58' E 023°34'0 0.0
2016-Apr-29 09:32N 37°58' E 023°34'0 0.0
2016-Apr-29 08:33N 37°58' E 023°34'0 0.0
2016-Apr-29 07:31N 37°58' E 023°34'0 0.0
2016-Apr-29 06:33N 37°58' E 023°34'0 0.0
2016-Apr-29 05:33N 37°58' E 023°34'0 0.0
2016-Apr-29 04:32N 37°58' E 023°34'0 0.0
2016-Apr-29 03:31N 37°58' E 023°34'0 0.0
2016-Apr-29 02:32N 37°58' E 023°34'0 0.0
2016-Apr-29 01:32N 37°58' E 023°34'0 0.0
2016-Apr-29 00:32N 37°58' E 023°34'0 0.0
2016-Apr-28 23:32N 37°58' E 023°34'0 0.0
2016-Apr-28 22:31N 37°58' E 023°34'0 0.0
2016-Apr-28 21:31N 37°58' E 023°34'0 0.0
2016-Apr-28 20:33N 37°58' E 023°34'0 0.0
2016-Apr-28 19:30N 37°58' E 023°34'0 0.0
2016-Apr-28 18:31N 37°58' E 023°34'0 0.0
2016-Apr-28 17:31N 37°58' E 023°34'0 0.0
2016-Apr-28 16:32N 37°58' E 023°34'0 0.0
2016-Apr-28 15:31N 37°58' E 023°34'0 0.0
2016-Apr-28 14:33N 37°58' E 023°34'0 0.0
2016-Apr-28 13:33N 37°58' E 023°34'0 0.0
2016-Apr-28 12:32N 37°58' E 023°34'0 0.0
2016-Apr-28 11:26N 37°58' E 023°34'0 0.0
2016-Apr-28 10:33N 37°58' E 023°34'0 0.0
2016-Apr-28 09:33N 37°58' E 023°34'0 0.0
2016-Apr-28 08:33N 37°58' E 023°34'0 0.0
2016-Apr-28 07:34N 37°58' E 023°34'0 0.0
2016-Apr-28 06:33N 37°58' E 023°34'0 0.0
2016-Apr-28 05:31N 37°58' E 023°34'0 0.0
2016-Apr-28 04:33N 37°58' E 023°34'0 0.0
2016-Apr-28 03:30N 37°58' E 023°34'0 0.0
2016-Apr-28 02:32N 37°58' E 023°34'0 0.0
2016-Apr-28 01:32N 37°58' E 023°34'0 0.0
2016-Apr-28 00:31N 37°58' E 023°34'0 0.0
2016-Apr-27 23:31N 37°58' E 023°34'0 0.0
2016-Apr-27 22:28N 37°58' E 023°34'0 0.0
2016-Apr-27 21:32N 37°58' E 023°34'0 0.0
2016-Apr-27 20:30N 37°58' E 023°34'0 0.0
2016-Apr-27 19:33N 37°58' E 023°34'0 0.0
2016-Apr-27 18:33N 37°58' E 023°34'0 0.0
2016-Apr-27 17:29N 37°58' E 023°34'0 0.0
2016-Apr-27 16:32N 37°58' E 023°34'0 0.0
2016-Apr-27 15:31N 37°58' E 023°34'0 0.0
2016-Apr-27 14:31N 37°58' E 023°34'0 0.0
2016-Apr-27 13:33N 37°58' E 023°34'0 0.0
2016-Apr-27 12:33N 37°58' E 023°34'0 0.0
2016-Apr-27 11:33N 37°58' E 023°34'0 0.0
2016-Apr-27 10:31N 37°58' E 023°34'0 0.0
2016-Apr-27 09:32N 37°58' E 023°34'0 0.0
2016-Apr-27 08:31N 37°58' E 023°34'0 0.0
2016-Apr-27 07:34N 37°58' E 023°34'0 0.0
2016-Apr-27 06:32N 37°58' E 023°34'0 0.0
2016-Apr-27 05:30N 37°58' E 023°34'0 0.0
2016-Apr-27 04:31N 37°58' E 023°34'0 0.0
2016-Apr-27 03:34N 37°58' E 023°34'0 0.0
2016-Apr-27 02:32N 37°58' E 023°34'0 0.0
2016-Apr-27 01:31N 37°58' E 023°34'0 0.0
2016-Apr-27 00:31N 37°58' E 023°34'0 0.0
2016-Apr-26 23:31N 37°58' E 023°34'0 0.0
2016-Apr-26 22:33N 37°58' E 023°34'0 0.0
2016-Apr-26 21:33N 37°58' E 023°34'0 0.0
2016-Apr-26 20:33N 37°58' E 023°34'0 0.0
2016-Apr-26 19:33N 37°58' E 023°34'0 0.0
2016-Apr-26 18:32N 37°58' E 023°34'0 0.0
2016-Apr-26 17:30N 37°58' E 023°34'0 0.0
2016-Apr-26 16:33N 37°58' E 023°34'0 0.0
2016-Apr-26 15:32N 37°58' E 023°34'0 0.0
2016-Apr-26 14:32N 37°58' E 023°34'0 0.0
2016-Apr-26 13:31N 37°58' E 023°34'0 0.0
2016-Apr-26 12:33N 37°58' E 023°34'0 0.0
2016-Apr-26 11:32N 37°58' E 023°34'0 0.0
2016-Apr-26 10:32N 37°58' E 023°34'0 0.0
2016-Apr-26 09:32N 37°58' E 023°34'0 0.0
2016-Apr-26 08:32N 37°58' E 023°34'0 0.0
2016-Apr-26 07:31N 37°58' E 023°34'0 0.0
2016-Apr-26 06:33N 37°58' E 023°34'0 0.0
2016-Apr-26 05:33N 37°58' E 023°34'0 0.0
2016-Apr-26 04:30N 37°58' E 023°34'0 0.0
2016-Apr-26 03:32N 37°58' E 023°34'0 0.0
2016-Apr-26 02:31N 37°58' E 023°34'0 0.0
2016-Apr-26 01:30N 37°58' E 023°34'0 0.0
2016-Apr-26 00:32N 37°58' E 023°34'0 0.0
2016-Apr-25 23:32N 37°58' E 023°34'0 0.0
2016-Apr-25 22:32N 37°58' E 023°34'0 0.0
2016-Apr-25 21:32N 37°58' E 023°34'0 0.0
2016-Apr-25 20:32N 37°58' E 023°34'0 0.0
2016-Apr-25 19:32N 37°58' E 023°34'0 0.0
2016-Apr-25 18:31N 37°58' E 023°34'0 0.0
2016-Apr-25 17:31N 37°58' E 023°34'0 0.0
2016-Apr-25 16:34N 37°58' E 023°34'0 0.0
2016-Apr-25 15:31N 37°58' E 023°34'0 0.0
2016-Apr-25 14:33N 37°58' E 023°34'0 0.0
2016-Apr-25 13:32N 37°58' E 023°34'0 0.0
2016-Apr-25 12:34N 37°58' E 023°34'0 0.0
2016-Apr-25 11:31N 37°58' E 023°34'0 0.0
2016-Apr-25 10:33N 37°58' E 023°34'0 0.0
2016-Apr-25 09:33N 37°58' E 023°34'0 0.0
2016-Apr-25 08:33N 37°58' E 023°34'0 0.0
2016-Apr-25 07:33N 37°58' E 023°34'0 0.0
2016-Apr-25 06:33N 37°58' E 023°34'0 0.0
2016-Apr-25 05:32N 37°58' E 023°34'0 0.0
2016-Apr-25 04:32N 37°58' E 023°34'0 0.0
2016-Apr-25 03:31N 37°58' E 023°34'0 0.0
2016-Apr-25 02:31N 37°58' E 023°34'0 0.0
2016-Apr-25 01:31N 37°58' E 023°34'0 0.0
2016-Apr-25 00:31N 37°58' E 023°34'0 0.0
2016-Apr-24 23:33N 37°58' E 023°34'0 0.0
2016-Apr-24 22:33N 37°58' E 023°34'0 0.0
2016-Apr-24 21:33N 37°58' E 023°34'0 0.0
2016-Apr-24 20:33N 37°58' E 023°34'0 0.0
2016-Apr-24 19:33N 37°58' E 023°34'0 0.0
2016-Apr-24 18:33N 37°58' E 023°34'0 0.0
2016-Apr-24 17:32N 37°58' E 023°34'0 0.0
2016-Apr-24 16:32N 37°58' E 023°34'0 0.0
2016-Apr-24 15:32N 37°58' E 023°34'0 0.0
2016-Apr-24 14:32N 37°58' E 023°34'0 0.0
2016-Apr-24 13:31N 37°58' E 023°34'0 0.0
2016-Apr-24 12:33N 37°58' E 023°34'0 0.0
2016-Apr-24 11:32N 37°58' E 023°34'2 1.8
2016-Apr-24 10:34N 37°57' E 023°36'2 2.2
2016-Apr-24 09:34N 37°57' E 023°38'0 0.0
2016-Apr-24 08:33N 37°57' E 023°38'0 0.0
2016-Apr-24 07:33N 37°57' E 023°38'0 0.0
2016-Apr-24 06:33N 37°57' E 023°38'0 0.0
2016-Apr-24 05:33N 37°57' E 023°38'0 0.0
2016-Apr-24 04:34N 37°57' E 023°38'0 0.0
2016-Apr-24 03:34N 37°57' E 023°38'0 0.0
2016-Apr-24 02:34N 37°57' E 023°38'0 0.0
2016-Apr-24 01:34N 37°57' E 023°38'0 0.0
2016-Apr-24 00:33N 37°57' E 023°38'0 0.0
2016-Apr-23 23:34N 37°57' E 023°38'0 0.0
2016-Apr-23 22:33N 37°57' E 023°38'0 0.0
2016-Apr-23 21:34N 37°57' E 023°38'0 0.0
2016-Apr-23 20:33N 37°57' E 023°38'0 0.0
2016-Apr-23 19:33N 37°57' E 023°38'0 0.0
2016-Apr-23 18:34N 37°57' E 023°38'0 0.0
2016-Apr-23 17:34N 37°57' E 023°38'0 0.0
2016-Apr-23 16:33N 37°57' E 023°38'0 0.0
2016-Apr-23 15:33N 37°57' E 023°38'0 0.0
2016-Apr-23 14:33N 37°57' E 023°38'0 0.0
2016-Apr-23 13:34N 37°57' E 023°38'0 0.0
2016-Apr-23 12:33N 37°57' E 023°38'1010.4
2016-Apr-23 11:33N 37°47' E 023°42'6421.3
2016-Apr-23 08:33N 37°14' E 024°51'1610.9
2016-Apr-23 07:03N 37°09' E 025°11'917.7
2016-Apr-23 06:34N 37°07' E 025°21'7 6.8
2016-Apr-23 05:33N 37°00' E 025°20'1210.0
2016-Apr-23 04:23N 36°52' E 025°30'910.8
2016-Apr-23 03:31N 36°54' E 025°42'10 1.9
2016-Apr-22 22:23N 36°53' E 025°30'10 8.3
2016-Apr-22 21:12N 36°59' E 025°20'711.5
2016-Apr-22 20:33N 37°06' E 025°22'1110.8
2016-Apr-22 19:32N 37°05' E 025°08'1211.8
2016-Apr-22 18:33N 37°09' E 024°55'5021.0
2016-Apr-22 16:09N 37°31' E 023°58'1321.0
2016-Apr-22 15:33N 37°38' E 023°45'1918.8
2016-Apr-22 14:33N 37°57' E 023°38'0 0.1
2016-Apr-22 13:33N 37°57' E 023°38'0 0.0
2016-Apr-22 12:33N 37°57' E 023°38'1110.9
2016-Apr-22 11:33N 37°46' E 023°43'6621.2
2016-Apr-22 08:28N 37°10' E 024°51'1513.9
2016-Apr-22 07:25N 37°05' E 025°09'1111.7
2016-Apr-22 06:29N 37°06' E 025°22'1313.7
2016-Apr-22 05:32N 37°10' E 025°38'1917.6
2016-Apr-22 04:29N 36°57' E 025°54'1110.9
2016-Apr-22 03:28N 36°53' E 026°07'2020.5
2016-Apr-22 02:31N 36°36' E 026°19'  
Track history (hours):
 
Tides and Currents Weather Stations Pressure Air Temp Water Temp Dewpoint Dewpoint Depression Visibility Wind Speed Wind Dir Waves Ship Positions

Blue Star Naxos

Last reported at 2016-May-02 00:31 UTC. Time now 2016-May-02 01:22 UTC.
Position N 37°58' E 023°33'.

Length 124 m; draft 5 m.

Type: Passenger vessel. MMSI: 239923000.

Date/timePositionNaut miles runAvg speedWind from/ knotsBaromVisibWave heightAir tempDewpointWater temp
2016-May-02 00:31N 37°58' E 023°33'0 0.0
2016-May-01 23:31N 37°58' E 023°33'0 0.0
2016-May-01 22:31N 37°58' E 023°33'0 0.0
2016-May-01 21:31N 37°58' E 023°33'0 0.0
2016-May-01 20:33N 37°58' E 023°33'6 6.0
2016-May-01 19:31N 37°60' E 023°26'2 2.0
2016-May-01 18:31N 37°59' E 023°28'0 0.0
2016-May-01 17:31N 37°59' E 023°28'0 0.0
2016-May-01 16:28N 37°59' E 023°28'1 1.3
2016-May-01 15:33N 37°59' E 023°30'0 0.0
2016-May-01 14:33N 37°59' E 023°30'1 0.6
2016-May-01 13:33N 37°58' E 023°30'2 1.8
2016-May-01 12:32N 37°60' E 023°29'0 0.4
2016-May-01 11:29N 38°00' E 023°29'4 4.5
2016-May-01 10:31N 37°58' E 023°34'0 0.0
2016-May-01 09:34N 37°58' E 023°34'0 0.0
2016-May-01 08:34N 37°58' E 023°34'0 0.0
2016-May-01 07:32N 37°58' E 023°34'0 0.0
2016-May-01 06:32N 37°58' E 023°34'0 0.0
2016-May-01 05:34N 37°58' E 023°34'0 0.0
2016-May-01 04:33N 37°58' E 023°34'0 0.0
2016-May-01 03:33N 37°58' E 023°34'0 0.0
2016-May-01 02:33N 37°58' E 023°34'0 0.0
2016-May-01 01:33N 37°58' E 023°34'0 0.0
2016-May-01 00:33N 37°58' E 023°34'0 0.0
2016-Apr-30 23:33N 37°58' E 023°34'0 0.0
2016-Apr-30 22:33N 37°58' E 023°34'0 0.0
2016-Apr-30 21:33N 37°58' E 023°34'0 0.0
2016-Apr-30 20:32N 37°58' E 023°34'0 0.0
2016-Apr-30 19:32N 37°58' E 023°34'0 0.0
2016-Apr-30 18:31N 37°58' E 023°34'0 0.0
2016-Apr-30 17:31N 37°58' E 023°34'0 0.0
2016-Apr-30 16:33N 37°58' E 023°34'0 0.0
2016-Apr-30 15:33N 37°58' E 023°34'0 0.0
2016-Apr-30 14:31N 37°58' E 023°34'0 0.0
2016-Apr-30 13:31N 37°58' E 023°34'0 0.0
2016-Apr-30 12:28N 37°58' E 023°34'0 0.0
2016-Apr-30 11:33N 37°58' E 023°34'0 0.0
2016-Apr-30 10:31N 37°58' E 023°34'0 0.0
2016-Apr-30 09:28N 37°58' E 023°34'0 0.0
2016-Apr-30 08:31N 37°58' E 023°34'0 0.0
2016-Apr-30 07:32N 37°58' E 023°34'0 0.0
2016-Apr-30 06:32N 37°58' E 023°34'0 0.0
2016-Apr-30 05:33N 37°58' E 023°34'0 0.0
2016-Apr-30 04:33N 37°58' E 023°34'0 0.0
2016-Apr-30 03:33N 37°58' E 023°34'0 0.0
2016-Apr-30 02:32N 37°58' E 023°34'0 0.0
2016-Apr-30 01:32N 37°58' E 023°34'0 0.0
2016-Apr-30 00:33N 37°58' E 023°34'0 0.0
2016-Apr-29 23:31N 37°58' E 023°34'0 0.0
2016-Apr-29 22:31N 37°58' E 023°34'0 0.0
2016-Apr-29 21:31N 37°58' E 023°34'0 0.0
2016-Apr-29 20:31N 37°58' E 023°34'0 0.0
2016-Apr-29 19:31N 37°58' E 023°34'0 0.0
2016-Apr-29 18:31N 37°58' E 023°34'0 0.0
2016-Apr-29 17:33N 37°58' E 023°34'0 0.0
2016-Apr-29 16:33N 37°58' E 023°34'0 0.0
2016-Apr-29 15:32N 37°58' E 023°34'0 0.0
2016-Apr-29 14:32N 37°58' E 023°34'0 0.0
2016-Apr-29 13:32N 37°58' E 023°34'0 0.0
2016-Apr-29 12:31N 37°58' E 023°34'0 0.0
2016-Apr-29 11:33N 37°58' E 023°34'0 0.0
2016-Apr-29 10:33N 37°58' E 023°34'0 0.0
2016-Apr-29 09:32N 37°58' E 023°34'0 0.0
2016-Apr-29 08:33N 37°58' E 023°34'0 0.0
2016-Apr-29 07:31N 37°58' E 023°34'0 0.0
2016-Apr-29 06:33N 37°58' E 023°34'0 0.0
2016-Apr-29 05:33N 37°58' E 023°34'0 0.0
2016-Apr-29 04:32N 37°58' E 023°34'0 0.0
2016-Apr-29 03:31N 37°58' E 023°34'0 0.0
2016-Apr-29 02:32N 37°58' E 023°34'0 0.0
2016-Apr-29 01:32N 37°58' E 023°34'0 0.0
2016-Apr-29 00:32N 37°58' E 023°34'0 0.0
2016-Apr-28 23:32N 37°58' E 023°34'0 0.0
2016-Apr-28 22:31N 37°58' E 023°34'0 0.0
2016-Apr-28 21:31N 37°58' E 023°34'0 0.0
2016-Apr-28 20:33N 37°58' E 023°34'0 0.0
2016-Apr-28 19:30N 37°58' E 023°34'0 0.0
2016-Apr-28 18:31N 37°58' E 023°34'0 0.0
2016-Apr-28 17:31N 37°58' E 023°34'0 0.0
2016-Apr-28 16:32N 37°58' E 023°34'0 0.0
2016-Apr-28 15:31N 37°58' E 023°34'0 0.0
2016-Apr-28 14:33N 37°58' E 023°34'0 0.0
2016-Apr-28 13:33N 37°58' E 023°34'0 0.0
2016-Apr-28 12:32N 37°58' E 023°34'0 0.0
2016-Apr-28 11:26N 37°58' E 023°34'0 0.0
2016-Apr-28 10:33N 37°58' E 023°34'0 0.0
2016-Apr-28 09:33N 37°58' E 023°34'0 0.0
2016-Apr-28 08:33N 37°58' E 023°34'0 0.0
2016-Apr-28 07:34N 37°58' E 023°34'0 0.0
2016-Apr-28 06:33N 37°58' E 023°34'0 0.0
2016-Apr-28 05:31N 37°58' E 023°34'0 0.0
2016-Apr-28 04:33N 37°58' E 023°34'0 0.0
2016-Apr-28 03:30N 37°58' E 023°34'0 0.0
2016-Apr-28 02:32N 37°58' E 023°34'0 0.0
2016-Apr-28 01:32N 37°58' E 023°34'0 0.0
2016-Apr-28 00:31N 37°58' E 023°34'0 0.0
2016-Apr-27 23:31N 37°58' E 023°34'0 0.0
2016-Apr-27 22:28N 37°58' E 023°34'0 0.0
2016-Apr-27 21:32N 37°58' E 023°34'0 0.0
2016-Apr-27 20:30N 37°58' E 023°34'0 0.0
2016-Apr-27 19:33N 37°58' E 023°34'0 0.0
2016-Apr-27 18:33N 37°58' E 023°34'0 0.0
2016-Apr-27 17:29N 37°58' E 023°34'0 0.0
2016-Apr-27 16:32N 37°58' E 023°34'0 0.0
2016-Apr-27 15:31N 37°58' E 023°34'0 0.0
2016-Apr-27 14:31N 37°58' E 023°34'0 0.0
2016-Apr-27 13:33N 37°58' E 023°34'0 0.0
2016-Apr-27 12:33N 37°58' E 023°34'0 0.0
2016-Apr-27 11:33N 37°58' E 023°34'0 0.0
2016-Apr-27 10:31N 37°58' E 023°34'0 0.0
2016-Apr-27 09:32N 37°58' E 023°34'0 0.0
2016-Apr-27 08:31N 37°58' E 023°34'0 0.0
2016-Apr-27 07:34N 37°58' E 023°34'0 0.0
2016-Apr-27 06:32N 37°58' E 023°34'0 0.0
2016-Apr-27 05:30N 37°58' E 023°34'0 0.0
2016-Apr-27 04:31N 37°58' E 023°34'0 0.0
2016-Apr-27 03:34N 37°58' E 023°34'0 0.0
2016-Apr-27 02:32N 37°58' E 023°34'0 0.0
2016-Apr-27 01:31N 37°58' E 023°34'0 0.0
2016-Apr-27 00:31N 37°58' E 023°34'0 0.0
2016-Apr-26 23:31N 37°58' E 023°34'0 0.0
2016-Apr-26 22:33N 37°58' E 023°34'0 0.0
2016-Apr-26 21:33N 37°58' E 023°34'0 0.0
2016-Apr-26 20:33N 37°58' E 023°34'0 0.0
2016-Apr-26 19:33N 37°58' E 023°34'0 0.0
2016-Apr-26 18:32N 37°58' E 023°34'0 0.0
2016-Apr-26 17:30N 37°58' E 023°34'0 0.0
2016-Apr-26 16:33N 37°58' E 023°34'0 0.0
2016-Apr-26 15:32N 37°58' E 023°34'0 0.0
2016-Apr-26 14:32N 37°58' E 023°34'0 0.0
2016-Apr-26 13:31N 37°58' E 023°34'0 0.0
2016-Apr-26 12:33N 37°58' E 023°34'0 0.0
2016-Apr-26 11:32N 37°58' E 023°34'0 0.0
2016-Apr-26 10:32N 37°58' E 023°34'0 0.0
2016-Apr-26 09:32N 37°58' E 023°34'0 0.0
2016-Apr-26 08:32N 37°58' E 023°34'0 0.0
2016-Apr-26 07:31N 37°58' E 023°34'0 0.0
2016-Apr-26 06:33N 37°58' E 023°34'0 0.0
2016-Apr-26 05:33N 37°58' E 023°34'0 0.0
2016-Apr-26 04:30N 37°58' E 023°34'0 0.0
2016-Apr-26 03:32N 37°58' E 023°34'0 0.0
2016-Apr-26 02:31N 37°58' E 023°34'0 0.0
2016-Apr-26 01:30N 37°58' E 023°34'0 0.0
2016-Apr-26 00:32N 37°58' E 023°34'0 0.0
2016-Apr-25 23:32N 37°58' E 023°34'0 0.0
2016-Apr-25 22:32N 37°58' E 023°34'0 0.0
2016-Apr-25 21:32N 37°58' E 023°34'0 0.0
2016-Apr-25 20:32N 37°58' E 023°34'0 0.0
2016-Apr-25 19:32N 37°58' E 023°34'0 0.0
2016-Apr-25 18:31N 37°58' E 023°34'0 0.0
2016-Apr-25 17:31N 37°58' E 023°34'0 0.0
2016-Apr-25 16:34N 37°58' E 023°34'0 0.0
2016-Apr-25 15:31N 37°58' E 023°34'0 0.0
2016-Apr-25 14:33N 37°58' E 023°34'0 0.0
2016-Apr-25 13:32N 37°58' E 023°34'0 0.0
2016-Apr-25 12:34N 37°58' E 023°34'0 0.0
2016-Apr-25 11:31N 37°58' E 023°34'0 0.0
2016-Apr-25 10:33N 37°58' E 023°34'0 0.0
2016-Apr-25 09:33N 37°58' E 023°34'0 0.0
2016-Apr-25 08:33N 37°58' E 023°34'0 0.0
2016-Apr-25 07:33N 37°58' E 023°34'0 0.0
2016-Apr-25 06:33N 37°58' E 023°34'0 0.0
2016-Apr-25 05:32N 37°58' E 023°34'0 0.0
2016-Apr-25 04:32N 37°58' E 023°34'0 0.0
2016-Apr-25 03:31N 37°58' E 023°34'0 0.0
2016-Apr-25 02:31N 37°58' E 023°34'0 0.0
2016-Apr-25 01:31N 37°58' E 023°34'0 0.0
2016-Apr-25 00:31N 37°58' E 023°34'0 0.0
2016-Apr-24 23:33N 37°58' E 023°34'0 0.0
2016-Apr-24 22:33N 37°58' E 023°34'0 0.0
2016-Apr-24 21:33N 37°58' E 023°34'0 0.0
2016-Apr-24 20:33N 37°58' E 023°34'0 0.0
2016-Apr-24 19:33N 37°58' E 023°34'0 0.0
2016-Apr-24 18:33N 37°58' E 023°34'0 0.0
2016-Apr-24 17:32N 37°58' E 023°34'0 0.0
2016-Apr-24 16:32N 37°58' E 023°34'0 0.0
2016-Apr-24 15:32N 37°58' E 023°34'0 0.0
2016-Apr-24 14:32N 37°58' E 023°34'0 0.0
2016-Apr-24 13:31N 37°58' E 023°34'0 0.0
2016-Apr-24 12:33N 37°58' E 023°34'0 0.0
2016-Apr-24 11:32N 37°58' E 023°34'2 1.8
2016-Apr-24 10:34N 37°57' E 023°36'2 2.2
2016-Apr-24 09:34N 37°57' E 023°38'0 0.0
2016-Apr-24 08:33N 37°57' E 023°38'0 0.0
2016-Apr-24 07:33N 37°57' E 023°38'0 0.0
2016-Apr-24 06:33N 37°57' E 023°38'0 0.0
2016-Apr-24 05:33N 37°57' E 023°38'0 0.0
2016-Apr-24 04:34N 37°57' E 023°38'0 0.0
2016-Apr-24 03:34N 37°57' E 023°38'0 0.0
2016-Apr-24 02:34N 37°57' E 023°38'0 0.0
2016-Apr-24 01:34N 37°57' E 023°38'0 0.0
2016-Apr-24 00:33N 37°57' E 023°38'0 0.0
2016-Apr-23 23:34N 37°57' E 023°38'0 0.0
2016-Apr-23 22:33N 37°57' E 023°38'0 0.0
2016-Apr-23 21:34N 37°57' E 023°38'0 0.0
2016-Apr-23 20:33N 37°57' E 023°38'0 0.0
2016-Apr-23 19:33N 37°57' E 023°38'0 0.0
2016-Apr-23 18:34N 37°57' E 023°38'0 0.0
2016-Apr-23 17:34N 37°57' E 023°38'0 0.0
2016-Apr-23 16:33N 37°57' E 023°38'0 0.0
2016-Apr-23 15:33N 37°57' E 023°38'0 0.0
2016-Apr-23 14:33N 37°57' E 023°38'0 0.0
2016-Apr-23 13:34N 37°57' E 023°38'0 0.0
2016-Apr-23 12:33N 37°57' E 023°38'1010.4
2016-Apr-23 11:33N 37°47' E 023°42'6421.3
2016-Apr-23 08:33N 37°14' E 024°51'1610.9
2016-Apr-23 07:03N 37°09' E 025°11'917.7
2016-Apr-23 06:34N 37°07' E 025°21'7 6.8
2016-Apr-23 05:33N 37°00' E 025°20'1210.0
2016-Apr-23 04:23N 36°52' E 025°30'910.8
2016-Apr-23 03:31N 36°54' E 025°42'10 1.9
2016-Apr-22 22:23N 36°53' E 025°30'10 8.3
2016-Apr-22 21:12N 36°59' E 025°20'711.5
2016-Apr-22 20:33N 37°06' E 025°22'1110.8
2016-Apr-22 19:32N 37°05' E 025°08'1211.8
2016-Apr-22 18:33N 37°09' E 024°55'5021.0
2016-Apr-22 16:09N 37°31' E 023°58'1321.0
2016-Apr-22 15:33N 37°38' E 023°45'1918.8
2016-Apr-22 14:33N 37°57' E 023°38'0 0.1
2016-Apr-22 13:33N 37°57' E 023°38'0 0.0
2016-Apr-22 12:33N 37°57' E 023°38'1110.9
2016-Apr-22 11:33N 37°46' E 023°43'6621.2
2016-Apr-22 08:28N 37°10' E 024°51'1513.9
2016-Apr-22 07:25N 37°05' E 025°09'1111.7
2016-Apr-22 06:29N 37°06' E 025°22'1313.7
2016-Apr-22 05:32N 37°10' E 025°38'1917.6
2016-Apr-22 04:29N 36°57' E 025°54'1110.9
2016-Apr-22 03:28N 36°53' E 026°07'2020.5
2016-Apr-22 02:31N 36°36' E 026°19'  

Dump ship's entire track history